Ikan Parang — 9V9099 — position and weather

sailwx.info

Track history (hours):
 
Tides and Currents Weather Stations Pressure Air Temp Water Temp Dewpoint Dewpoint Depression Visibility Wind Speed Wind Dir Waves Ship Positions

Ikan Parang

Last reported at 2017-Dec-12 06:11 UTC. Time now 2017-Dec-15 12:09 UTC.
Position N 31°30' E 032°14'.

Length 183 m; draft 12.8 m.

Type: Cargo ship. MMSI: 566238000.

Date/timePositionNaut miles runAvg speedWind from/ knotsBaromVisibWave heightAir tempDewpointWater temp
2017-Dec-12 06:11N 31°30' E 032°14'2 9.5
2017-Dec-12 05:58N 31°32' E 032°13'40611.3
2017-Dec-10 17:52N 36°32' E 026°42'410.7
2017-Dec-10 17:30N 36°35' E 026°39'510.1
2017-Dec-10 17:00N 36°38' E 026°35'611.5
2017-Dec-10 16:30N 36°42' E 026°30'611.6
2017-Dec-10 16:00N 36°46' E 026°25'612.0
2017-Dec-10 15:30N 36°51' E 026°19'612.1
2017-Dec-10 15:00N 36°55' E 026°14'611.9
2017-Dec-10 14:30N 36°60' E 026°10'611.7
2017-Dec-10 14:00N 37°05' E 026°07'612.2
2017-Dec-10 13:30N 37°10' E 026°03'612.6
2017-Dec-10 13:00N 37°16' E 025°59'612.9
2017-Dec-10 12:30N 37°21' E 025°55'612.6
2017-Dec-10 12:00N 37°27' E 025°51'812.2
2017-Dec-10 11:22N 37°34' E 025°48'512.6
2017-Dec-10 10:59N 37°39' E 025°46'1112.8
2017-Dec-10 10:06N 37°50' E 025°41'812.6
2017-Dec-10 09:26N 37°57' E 025°38'  
2017-Dec-07 18:07N 46°16' E 030°54'511.6
2017-Dec-07 17:41N 46°21' E 030°55'311.6
2017-Dec-07 17:27N 46°24' E 030°55'  
2017-Dec-03 18:17N 46°35' E 031°19'0 0.0
2017-Dec-03 17:59N 46°35' E 031°19'0 0.0
2017-Dec-03 17:29N 46°35' E 031°19'0 0.0
2017-Dec-03 16:59N 46°35' E 031°19'0 0.0
2017-Dec-03 15:11N 46°35' E 031°19'0 0.1
2017-Dec-03 14:59N 46°35' E 031°19'0 0.0
2017-Dec-03 14:29N 46°35' E 031°19'0 0.0
2017-Dec-03 13:59N 46°35' E 031°19'0 0.1
2017-Dec-03 13:29N 46°35' E 031°19'0 0.0
2017-Dec-03 12:59N 46°35' E 031°19'0 0.0
2017-Dec-02 15:29N 46°35' E 031°19'0 0.0
2017-Dec-02 10:35N 46°35' E 031°19'0 0.0
2017-Dec-02 10:23N 46°35' E 031°19'0 0.0
2017-Dec-02 06:26N 46°35' E 031°19'  
Track history (hours):
 
Tides and Currents Weather Stations Pressure Air Temp Water Temp Dewpoint Dewpoint Depression Visibility Wind Speed Wind Dir Waves Ship Positions

Ikan Parang

Last reported at 2017-Dec-12 06:11 UTC. Time now 2017-Dec-15 12:09 UTC.
Position N 31°30' E 032°14'.

Length 183 m; draft 12.8 m.

Type: Cargo ship. MMSI: 566238000.

Date/timePositionNaut miles runAvg speedWind from/ knotsBaromVisibWave heightAir tempDewpointWater temp
2017-Dec-12 06:11N 31°30' E 032°14'2 9.5
2017-Dec-12 05:58N 31°32' E 032°13'40611.3
2017-Dec-10 17:52N 36°32' E 026°42'410.7
2017-Dec-10 17:30N 36°35' E 026°39'510.1
2017-Dec-10 17:00N 36°38' E 026°35'611.5
2017-Dec-10 16:30N 36°42' E 026°30'611.6
2017-Dec-10 16:00N 36°46' E 026°25'612.0
2017-Dec-10 15:30N 36°51' E 026°19'612.1
2017-Dec-10 15:00N 36°55' E 026°14'611.9
2017-Dec-10 14:30N 36°60' E 026°10'611.7
2017-Dec-10 14:00N 37°05' E 026°07'612.2
2017-Dec-10 13:30N 37°10' E 026°03'612.6
2017-Dec-10 13:00N 37°16' E 025°59'612.9
2017-Dec-10 12:30N 37°21' E 025°55'612.6
2017-Dec-10 12:00N 37°27' E 025°51'812.2
2017-Dec-10 11:22N 37°34' E 025°48'512.6
2017-Dec-10 10:59N 37°39' E 025°46'1112.8
2017-Dec-10 10:06N 37°50' E 025°41'812.6
2017-Dec-10 09:26N 37°57' E 025°38'  
2017-Dec-07 18:07N 46°16' E 030°54'511.6
2017-Dec-07 17:41N 46°21' E 030°55'311.6
2017-Dec-07 17:27N 46°24' E 030°55'  
2017-Dec-03 18:17N 46°35' E 031°19'0 0.0
2017-Dec-03 17:59N 46°35' E 031°19'0 0.0
2017-Dec-03 17:29N 46°35' E 031°19'0 0.0
2017-Dec-03 16:59N 46°35' E 031°19'0 0.0
2017-Dec-03 15:11N 46°35' E 031°19'0 0.1
2017-Dec-03 14:59N 46°35' E 031°19'0 0.0
2017-Dec-03 14:29N 46°35' E 031°19'0 0.0
2017-Dec-03 13:59N 46°35' E 031°19'0 0.1
2017-Dec-03 13:29N 46°35' E 031°19'0 0.0
2017-Dec-03 12:59N 46°35' E 031°19'0 0.0
2017-Dec-02 15:29N 46°35' E 031°19'0 0.0
2017-Dec-02 10:35N 46°35' E 031°19'0 0.0
2017-Dec-02 10:23N 46°35' E 031°19'0 0.0
2017-Dec-02 06:26N 46°35' E 031°19'  

Dump ship's entire track history